createdAt,value
2022-12-11T00:00:17.273Z,12.10
2022-12-11T00:02:44.109Z,12.04
2022-12-11T00:05:11.708Z,12.11
2022-12-11T00:07:38.787Z,12.17
2022-12-11T00:10:06.461Z,11.93
2022-12-11T00:12:33.326Z,11.99
2022-12-11T00:15:00.194Z,12.09
2022-12-11T00:17:27.037Z,12.10
2022-12-11T00:19:53.887Z,12.12
2022-12-11T00:22:21.925Z,12.26
2022-12-11T00:24:48.737Z,12.40
2022-12-11T00:27:15.621Z,12.35
2022-12-11T00:29:42.587Z,12.41
2022-12-11T00:32:09.450Z,12.43
2022-12-11T00:34:36.342Z,12.25
2022-12-11T00:37:03.354Z,12.25
2022-12-11T00:39:30.205Z,12.38
2022-12-11T00:41:58.377Z,12.45
2022-12-11T00:44:25.660Z,12.34
2022-12-11T00:46:52.461Z,12.23
2022-12-11T00:49:19.497Z,12.20
2022-12-11T00:51:46.283Z,12.20
2022-12-11T00:54:13.329Z,12.13
2022-12-11T00:56:40.177Z,12.05
2022-12-11T00:59:07.335Z,12.02
2022-12-11T01:01:34.809Z,12.00
2022-12-11T01:04:02.130Z,12.08
2022-12-11T01:06:29.143Z,12.18
2022-12-11T01:09:15.497Z,12.18
2022-12-11T01:11:43.304Z,12.15
2022-12-11T01:14:11.868Z,12.08
2022-12-11T01:16:38.952Z,12.15
2022-12-11T01:19:06.147Z,12.17
2022-12-11T01:21:33.124Z,12.10
2022-12-11T01:24:00.020Z,11.96
2022-12-11T01:26:26.926Z,11.91
2022-12-11T01:28:53.746Z,11.94
2022-12-11T01:31:22.246Z,12.22
2022-12-11T01:33:49.257Z,12.26
2022-12-11T01:36:19.594Z,12.29
2022-12-11T01:38:48.044Z,12.16
2022-12-11T01:41:15.505Z,11.99
2022-12-11T01:44:03.173Z,12.13
2022-12-11T01:46:31.688Z,12.15
2022-12-11T01:49:00.845Z,12.22
2022-12-11T01:51:32.144Z,12.25
2022-12-11T01:54:02.374Z,12.28
2022-12-11T01:56:33.041Z,12.30
2022-12-11T01:59:07.084Z,12.38
2022-12-11T02:02:01.571Z,12.44
2022-12-11T02:04:29.974Z,12.34
2022-12-11T02:06:56.898Z,12.43
2022-12-11T02:09:27.556Z,12.34
2022-12-11T02:12:13.141Z,12.25
2022-12-11T02:14:43.275Z,12.25
2022-12-11T02:17:16.976Z,12.27
2022-12-11T02:20:02.119Z,12.42
2022-12-11T02:23:01.490Z,12.42
2022-12-11T02:25:59.463Z,12.42
2022-12-11T02:28:39.279Z,12.34
2022-12-11T02:31:13.194Z,12.35
2022-12-11T02:33:49.765Z,12.38
2022-12-11T02:36:20.301Z,12.40
2022-12-11T02:38:51.835Z,12.48
2022-12-11T02:41:22.052Z,12.47
2022-12-11T02:43:51.186Z,12.50
2022-12-11T02:46:20.959Z,12.38
2022-12-11T02:48:51.209Z,12.24
2022-12-11T02:51:25.239Z,12.18
2022-12-11T02:53:57.448Z,12.07
2022-12-11T02:56:30.922Z,12.23
2022-12-11T02:59:03.988Z,12.24
2022-12-11T03:01:31.092Z,12.32
2022-12-11T03:03:58.479Z,12.43
2022-12-11T03:06:32.684Z,12.51
2022-12-11T03:08:59.693Z,12.52
2022-12-11T03:11:26.498Z,12.58
2022-12-11T03:13:54.423Z,12.72
2022-12-11T03:16:47.484Z,12.71
2022-12-11T03:19:38.105Z,12.68
2022-12-11T03:22:13.526Z,12.65
2022-12-11T03:25:04.419Z,12.62
2022-12-11T03:27:39.603Z,12.61
2022-12-11T03:30:11.782Z,12.59
2022-12-11T03:32:44.634Z,12.60
2022-12-11T03:35:31.061Z,12.60
2022-12-11T03:38:02.863Z,12.51
2022-12-11T03:40:33.359Z,12.41
2022-12-11T03:43:00.818Z,12.35
2022-12-11T03:45:30.187Z,12.33
2022-12-11T03:47:59.996Z,12.36
2022-12-11T03:50:31.149Z,12.29
2022-12-11T03:52:58.770Z,12.23
2022-12-11T03:55:28.331Z,12.28
2022-12-11T03:57:55.354Z,12.30
2022-12-11T04:00:22.279Z,12.30
2022-12-11T04:03:13.338Z,12.38
2022-12-11T04:05:42.606Z,12.17
2022-12-11T04:08:09.747Z,12.16
2022-12-11T04:10:36.895Z,12.18
2022-12-11T04:13:03.945Z,12.31
2022-12-11T04:15:30.751Z,12.31
2022-12-11T04:18:16.354Z,12.08
2022-12-11T04:21:01.764Z,11.90
2022-12-11T04:23:47.210Z,11.99
2022-12-11T04:26:20.558Z,12.10
2022-12-11T04:28:48.785Z,11.99
2022-12-11T04:31:21.614Z,12.16
2022-12-11T04:33:48.541Z,12.09
2022-12-11T04:36:15.910Z,12.14
2022-12-11T04:38:42.769Z,12.05
2022-12-11T04:41:15.830Z,12.09
2022-12-11T04:43:45.319Z,12.14
2022-12-11T04:46:18.230Z,12.09
2022-12-11T04:48:46.008Z,12.04
2022-12-11T04:51:12.998Z,11.90
2022-12-11T04:53:39.945Z,11.76
2022-12-11T04:56:10.017Z,11.60
2022-12-11T04:58:37.219Z,11.47
2022-12-11T05:01:11.987Z,11.57
2022-12-11T05:03:39.072Z,11.56
2022-12-11T05:06:06.669Z,11.39
2022-12-11T05:08:36.391Z,11.51
2022-12-11T05:11:05.984Z,11.59
2022-12-11T05:13:33.175Z,11.75
2022-12-11T05:16:00.563Z,11.75
2022-12-11T05:18:27.467Z,11.79
2022-12-11T05:21:04.130Z,11.82
2022-12-11T05:23:31.155Z,11.83
2022-12-11T05:26:00.432Z,11.99
2022-12-11T05:28:29.217Z,12.02
2022-12-11T05:31:06.053Z,11.72
2022-12-11T05:33:34.339Z,11.71
2022-12-11T05:36:01.582Z,11.47
2022-12-11T05:38:28.480Z,11.51
2022-12-11T05:41:04.136Z,11.51
2022-12-11T05:43:33.625Z,11.48
2022-12-11T05:46:08.139Z,11.54
2022-12-11T05:48:35.444Z,11.57
2022-12-11T05:51:02.936Z,11.59
2022-12-11T05:53:30.041Z,11.60
2022-12-11T05:56:05.863Z,11.67
2022-12-11T05:58:34.115Z,11.69
2022-12-11T06:01:01.391Z,11.63
2022-12-11T06:03:28.729Z,11.53
2022-12-11T06:05:55.931Z,11.54
2022-12-11T06:08:22.868Z,11.65
2022-12-11T06:10:50.763Z,11.67
2022-12-11T06:13:17.664Z,11.80
2022-12-11T06:15:45.027Z,11.78
2022-12-11T06:18:11.989Z,11.79
2022-12-11T06:20:39.428Z,11.94
2022-12-11T06:23:06.445Z,11.91
2022-12-11T06:25:33.696Z,11.94
2022-12-11T06:28:00.555Z,11.80
2022-12-11T06:30:38.909Z,11.77
2022-12-11T06:33:06.975Z,11.81
2022-12-11T06:35:40.125Z,11.93
2022-12-11T06:38:09.241Z,11.73
2022-12-11T06:40:36.116Z,11.52
2022-12-11T06:43:03.657Z,11.61
2022-12-11T06:45:30.968Z,11.59
2022-12-11T06:47:58.857Z,11.79
2022-12-11T06:50:27.114Z,11.84
2022-12-11T06:52:53.983Z,11.92
2022-12-11T06:55:20.944Z,11.81
2022-12-11T06:57:47.801Z,11.83
2022-12-11T07:00:15.690Z,11.81
2022-12-11T07:02:42.561Z,11.86
2022-12-11T07:05:09.846Z,11.96
2022-12-11T07:07:36.952Z,11.95
2022-12-11T07:10:08.335Z,11.88
2022-12-11T07:12:36.145Z,11.87
2022-12-11T07:15:04.293Z,11.92
2022-12-11T07:17:31.452Z,11.97
2022-12-11T07:19:58.390Z,11.88
2022-12-11T07:22:25.220Z,11.99
2022-12-11T07:24:52.097Z,11.94
2022-12-11T07:27:18.955Z,11.78
2022-12-11T07:29:45.874Z,11.86
2022-12-11T07:32:12.800Z,11.86
2022-12-11T07:34:40.126Z,11.80
2022-12-11T07:37:07.072Z,11.82
2022-12-11T07:39:34.110Z,11.61
2022-12-11T07:42:01.004Z,11.93
2022-12-11T07:44:27.845Z,12.08
2022-12-11T07:46:54.688Z,12.04
2022-12-11T07:49:21.622Z,12.15
2022-12-11T07:51:48.499Z,12.25
2022-12-11T07:54:19.060Z,12.36
2022-12-11T07:56:53.166Z,12.45
2022-12-11T07:59:21.291Z,12.45
2022-12-11T08:01:48.426Z,12.49
2022-12-11T08:04:16.046Z,12.54
2022-12-11T08:06:43.602Z,12.43
2022-12-11T08:09:21.159Z,12.32
2022-12-11T08:11:52.192Z,12.31
2022-12-11T08:14:19.795Z,12.46
2022-12-11T08:16:47.237Z,12.61
2022-12-11T08:19:14.551Z,12.70
2022-12-11T08:21:41.598Z,12.75
2022-12-11T08:24:10.095Z,12.95
2022-12-11T08:26:37.146Z,13.11
2022-12-11T08:29:04.064Z,13.33
2022-12-11T08:31:33.581Z,13.27
2022-12-11T08:34:00.492Z,13.17
2022-12-11T08:36:27.814Z,13.17
2022-12-11T08:38:56.237Z,13.23
2022-12-11T08:41:29.716Z,13.30
2022-12-11T08:44:00.995Z,13.33
2022-12-11T08:46:31.541Z,13.36
2022-12-11T08:48:59.592Z,13.43
2022-12-11T08:51:30.382Z,13.51
2022-12-11T08:54:00.213Z,13.61
2022-12-11T08:56:28.382Z,13.63
2022-12-11T08:58:55.650Z,13.54
2022-12-11T09:01:26.909Z,13.63
2022-12-11T09:03:56.797Z,13.81
2022-12-11T09:06:26.279Z,13.87
2022-12-11T09:08:54.208Z,13.94
2022-12-11T09:11:24.346Z,13.77
2022-12-11T09:13:54.224Z,13.84
2022-12-11T09:16:24.657Z,13.77
2022-12-11T09:18:53.670Z,13.80
2022-12-11T09:21:24.332Z,13.78
2022-12-11T09:24:10.802Z,13.70
2022-12-11T09:26:38.911Z,13.66
2022-12-11T09:29:06.508Z,13.61
2022-12-11T09:31:36.156Z,13.71
2022-12-11T09:34:07.194Z,13.76
2022-12-11T09:36:35.201Z,13.80
2022-12-11T09:39:04.438Z,13.89
2022-12-11T09:41:50.350Z,13.90
2022-12-11T09:44:31.568Z,13.93
2022-12-11T09:46:59.437Z,13.85
2022-12-11T09:49:37.985Z,13.88
2022-12-11T09:52:11.935Z,13.89
2022-12-11T09:54:53.204Z,13.82
2022-12-11T09:57:20.608Z,13.73
2022-12-11T09:59:49.995Z,13.74
2022-12-11T10:02:42.782Z,13.72
2022-12-11T10:05:27.866Z,13.69
2022-12-11T10:08:09.073Z,13.65
2022-12-11T10:10:43.834Z,13.56
2022-12-11T10:13:16.665Z,13.47
2022-12-11T10:16:37.163Z,13.55
2022-12-11T10:19:04.780Z,13.48
2022-12-11T10:21:40.127Z,13.37
2022-12-11T10:25:07.649Z,13.34
2022-12-11T10:27:23.585Z,13.39
2022-12-11T10:30:18.435Z,13.14
2022-12-11T10:33:02.130Z,13.05
2022-12-11T10:35:55.329Z,12.97
2022-12-11T10:38:22.289Z,12.98
2022-12-11T10:41:18.109Z,13.11
2022-12-11T10:43:47.849Z,13.21
2022-12-11T10:46:19.084Z,13.19
2022-12-11T10:48:59.494Z,13.09
2022-12-11T10:51:32.875Z,12.92
2022-12-11T10:54:08.771Z,12.74
2022-12-11T10:56:38.155Z,12.72
2022-12-11T10:59:05.537Z,12.62
2022-12-11T11:01:33.206Z,12.64
2022-12-11T11:04:06.753Z,12.66
2022-12-11T11:06:34.235Z,12.62
2022-12-11T11:09:02.099Z,12.64
2022-12-11T11:11:38.319Z,12.64
2022-12-11T11:14:05.341Z,12.61
2022-12-11T11:16:35.403Z,12.70
2022-12-11T11:19:02.581Z,12.97
2022-12-11T11:21:30.440Z,12.96
2022-12-11T11:23:58.327Z,13.09
2022-12-11T11:26:38.287Z,13.16
2022-12-11T11:29:26.628Z,13.31
2022-12-11T11:31:53.837Z,13.43
2022-12-11T11:34:26.216Z,13.96
2022-12-11T11:36:58.122Z,14.34
2022-12-11T11:39:38.358Z,14.49
2022-12-11T11:42:18.900Z,14.66
2022-12-11T11:45:14.010Z,14.80
2022-12-11T11:48:11.097Z,14.95
2022-12-11T11:50:45.160Z,15.07
2022-12-11T11:53:16.764Z,15.14
2022-12-11T11:56:06.092Z,15.19
2022-12-11T11:58:50.013Z,15.31
2022-12-11T12:01:20.286Z,15.46
2022-12-11T12:03:50.981Z,15.59
2022-12-11T12:06:51.671Z,15.86
2022-12-11T12:09:41.671Z,16.16
2022-12-11T12:12:47.622Z,16.29
2022-12-11T12:15:35.820Z,16.56
2022-12-11T12:19:00.935Z,16.62
2022-12-11T12:21:33.556Z,16.60
2022-12-11T12:24:12.490Z,16.42
2022-12-11T12:26:45.845Z,16.28
2022-12-11T12:29:24.829Z,16.11
2022-12-11T12:32:09.010Z,16.28
2022-12-11T12:34:42.366Z,16.46
2022-12-11T12:37:31.222Z,16.62
2022-12-11T12:40:17.025Z,16.52
2022-12-11T12:42:49.851Z,16.48
2022-12-11T12:45:34.470Z,16.32
2022-12-11T12:48:02.638Z,16.37
2022-12-11T12:50:40.582Z,16.31
2022-12-11T12:53:14.683Z,16.13
2022-12-11T12:55:45.619Z,16.07
2022-12-11T12:58:28.233Z,16.12
2022-12-11T13:01:06.678Z,16.04
2022-12-11T13:03:37.917Z,15.88
2022-12-11T13:06:09.366Z,15.79
2022-12-11T13:08:52.988Z,15.76
2022-12-11T13:11:21.727Z,15.75
2022-12-11T13:14:03.858Z,15.72
2022-12-11T13:16:40.341Z,15.75
2022-12-11T13:19:35.433Z,15.73
2022-12-11T13:22:15.104Z,15.51
2022-12-11T13:24:49.039Z,15.22
2022-12-11T13:27:37.376Z,14.81
2022-12-11T13:30:25.243Z,14.37
2022-12-11T13:33:04.639Z,13.98
2022-12-11T13:35:33.852Z,13.64
2022-12-11T13:38:06.173Z,13.26
2022-12-11T13:40:38.756Z,12.82
2022-12-11T13:43:17.432Z,12.45
2022-12-11T13:45:49.744Z,12.11
2022-12-11T13:48:25.868Z,12.10
2022-12-11T13:50:55.223Z,11.80
2022-12-11T13:53:22.654Z,11.72
2022-12-11T13:56:02.055Z,11.80
2022-12-11T13:58:31.203Z,11.88
2022-12-11T14:01:22.704Z,11.73
2022-12-11T14:03:58.413Z,11.57
2022-12-11T14:06:28.903Z,11.29
2022-12-11T14:09:00.555Z,10.99
2022-12-11T14:11:34.538Z,10.79
2022-12-11T14:14:05.943Z,10.58
2022-12-11T14:16:33.567Z,10.44
2022-12-11T14:19:10.253Z,10.34
2022-12-11T14:21:37.452Z,10.40
2022-12-11T14:24:06.612Z,10.40
2022-12-11T14:26:38.991Z,10.37
2022-12-11T14:29:06.710Z,10.35
2022-12-11T14:31:52.079Z,10.42
2022-12-11T14:34:30.714Z,10.46
2022-12-11T14:36:59.560Z,10.46
2022-12-11T14:39:33.983Z,10.54
2022-12-11T14:42:08.172Z,10.62
2022-12-11T14:44:46.478Z,10.54
2022-12-11T14:47:22.576Z,10.60
2022-12-11T14:49:58.752Z,10.58
2022-12-11T14:52:36.050Z,10.51
2022-12-11T14:55:08.624Z,10.34
2022-12-11T14:57:37.302Z,10.29
2022-12-11T15:00:05.861Z,10.24
2022-12-11T15:02:36.128Z,10.09
2022-12-11T15:05:06.225Z,9.97
2022-12-11T15:07:33.985Z,9.91
2022-12-11T15:10:01.050Z,9.78
2022-12-11T15:12:28.074Z,9.79
2022-12-11T15:15:00.837Z,9.71
2022-12-11T15:17:30.935Z,9.58
2022-12-11T15:20:10.000Z,9.56
2022-12-11T15:22:37.660Z,9.62
2022-12-11T15:25:05.970Z,9.61
2022-12-11T15:27:39.150Z,9.63
2022-12-11T15:30:31.436Z,9.67
2022-12-11T15:33:11.982Z,9.52
2022-12-11T15:35:40.192Z,9.59
2022-12-11T15:38:25.072Z,9.63
2022-12-11T15:40:52.121Z,9.60
2022-12-11T15:43:18.969Z,9.60
2022-12-11T15:45:45.969Z,9.63
2022-12-11T15:48:13.158Z,9.67
2022-12-11T15:50:40.312Z,9.78
2022-12-11T15:53:07.242Z,9.58
2022-12-11T15:55:35.154Z,9.57
2022-12-11T15:58:06.056Z,9.57
2022-12-11T16:00:32.980Z,9.55
2022-12-11T16:02:59.982Z,9.59
2022-12-11T16:05:27.167Z,9.53
2022-12-11T16:07:56.595Z,9.44
2022-12-11T16:10:23.539Z,9.40
2022-12-11T16:12:50.520Z,9.37
2022-12-11T16:15:23.421Z,9.27
2022-12-11T16:17:58.952Z,9.30
2022-12-11T16:20:25.823Z,9.29
2022-12-11T16:22:52.668Z,9.27
2022-12-11T16:25:19.691Z,8.82
2022-12-11T16:27:46.521Z,8.30
2022-12-11T16:30:14.059Z,8.05
2022-12-11T16:32:40.958Z,7.72
2022-12-11T16:35:07.912Z,7.54
2022-12-11T16:37:35.073Z,7.51
2022-12-11T16:40:01.957Z,7.41
2022-12-11T16:42:28.754Z,7.51
2022-12-11T16:45:03.895Z,7.62
2022-12-11T16:47:30.771Z,7.38
2022-12-11T16:50:01.092Z,7.21
2022-12-11T16:52:28.595Z,7.41
2022-12-11T16:54:57.053Z,7.11
2022-12-11T16:57:24.593Z,7.10
2022-12-11T16:59:51.655Z,6.88
2022-12-11T17:02:20.019Z,6.80
2022-12-11T17:04:52.116Z,7.00
2022-12-11T17:07:20.707Z,7.10
2022-12-11T17:09:47.792Z,6.93
2022-12-11T17:12:14.636Z,6.74
2022-12-11T17:14:41.518Z,6.69
2022-12-11T17:17:09.304Z,6.58
2022-12-11T17:19:36.549Z,6.65
2022-12-11T17:22:04.648Z,6.63
2022-12-11T17:24:31.636Z,6.34
2022-12-11T17:26:59.779Z,6.40
2022-12-11T17:29:26.686Z,6.42
2022-12-11T17:31:53.707Z,6.46
2022-12-11T17:34:20.622Z,6.50
2022-12-11T17:36:47.715Z,6.53
2022-12-11T17:39:14.669Z,6.60
2022-12-11T17:41:41.569Z,6.43
2022-12-11T17:44:08.473Z,6.28
2022-12-11T17:46:35.400Z,6.29
2022-12-11T17:49:04.478Z,6.45
2022-12-11T17:51:31.560Z,6.41
2022-12-11T17:53:58.542Z,6.43
2022-12-11T17:56:26.414Z,6.47
2022-12-11T17:58:53.456Z,6.60
2022-12-11T18:01:21.079Z,6.66
2022-12-11T18:03:48.348Z,6.83
2022-12-11T18:06:16.890Z,6.97
2022-12-11T18:08:45.702Z,7.08
2022-12-11T18:11:18.048Z,7.14
2022-12-11T18:13:46.020Z,7.20
2022-12-11T18:16:27.523Z,7.27
2022-12-11T18:18:54.874Z,7.35
2022-12-11T18:21:31.302Z,7.42
2022-12-11T18:24:00.122Z,7.46
2022-12-11T18:26:28.103Z,7.52
2022-12-11T18:28:55.536Z,7.53
2022-12-11T18:31:23.128Z,7.62
2022-12-11T18:33:51.297Z,7.61
2022-12-11T18:36:19.809Z,7.67
2022-12-11T18:38:48.070Z,7.71
2022-12-11T18:41:17.311Z,7.75
2022-12-11T18:43:44.867Z,7.83
2022-12-11T18:46:14.910Z,7.85
2022-12-11T18:48:43.471Z,7.86
2022-12-11T18:51:14.402Z,7.87
2022-12-11T18:53:41.536Z,7.84
2022-12-11T18:56:11.453Z,7.86
2022-12-11T18:58:39.263Z,7.77
2022-12-11T19:01:24.870Z,7.79
2022-12-11T19:03:58.811Z,7.74
2022-12-11T19:06:33.238Z,7.76
2022-12-11T19:09:00.380Z,7.78
2022-12-11T19:11:29.476Z,7.79
2022-12-11T19:13:56.808Z,7.75
2022-12-11T19:16:27.496Z,7.75
2022-12-11T19:18:54.657Z,7.81
2022-12-11T19:21:21.700Z,7.89
2022-12-11T19:23:49.813Z,8.01
2022-12-11T19:26:19.082Z,7.93
2022-12-11T19:28:47.765Z,7.79
2022-12-11T19:31:21.176Z,7.72
2022-12-11T19:33:48.522Z,7.72
2022-12-11T19:36:18.356Z,7.57
2022-12-11T19:38:46.678Z,7.47
2022-12-11T19:41:19.403Z,7.49
2022-12-11T19:43:46.846Z,7.47
2022-12-11T19:46:15.089Z,7.57
2022-12-11T19:48:42.765Z,7.55
2022-12-11T19:51:15.870Z,7.59
2022-12-11T19:53:44.776Z,7.55
2022-12-11T19:56:12.690Z,7.58
2022-12-11T19:58:41.615Z,7.59
2022-12-11T20:01:09.936Z,7.62
2022-12-11T20:03:37.998Z,7.58
2022-12-11T20:06:06.515Z,7.47
2022-12-11T20:08:49.713Z,7.57
2022-12-11T20:11:19.150Z,7.58
2022-12-11T20:13:49.756Z,7.58
2022-12-11T20:16:20.016Z,7.65
2022-12-11T20:18:56.103Z,7.65
2022-12-11T20:21:23.984Z,7.65
2022-12-11T20:23:51.371Z,7.68
2022-12-11T20:26:23.917Z,7.65
2022-12-11T20:28:52.256Z,7.65
2022-12-11T20:31:23.006Z,7.68
2022-12-11T20:33:51.346Z,7.66
2022-12-11T20:36:20.886Z,7.69
2022-12-11T20:38:48.514Z,7.70
2022-12-11T20:41:18.966Z,7.72
2022-12-11T20:43:49.435Z,7.71
2022-12-11T20:46:17.346Z,7.69
2022-12-11T20:48:45.575Z,7.64
2022-12-11T20:51:19.615Z,7.43
2022-12-11T20:53:56.566Z,7.35
2022-12-11T20:56:25.151Z,7.31
2022-12-11T20:58:52.225Z,7.18
2022-12-11T21:01:22.761Z,7.02
2022-12-11T21:03:50.633Z,6.98
2022-12-11T21:06:23.216Z,6.95
2022-12-11T21:08:50.300Z,6.87
2022-12-11T21:11:20.660Z,6.61
2022-12-11T21:13:50.630Z,6.60
2022-12-11T21:16:19.066Z,6.42
2022-12-11T21:18:46.771Z,6.25
2022-12-11T21:21:13.835Z,6.11
2022-12-11T21:23:41.486Z,5.91
2022-12-11T21:26:08.753Z,5.95
2022-12-11T21:28:49.284Z,5.98
2022-12-11T21:31:22.300Z,5.94
2022-12-11T21:33:52.729Z,6.23
2022-12-11T21:36:20.417Z,6.41
2022-12-11T21:38:48.503Z,6.43
2022-12-11T21:41:23.213Z,6.36
2022-12-11T21:44:56.655Z,6.42
2022-12-11T21:46:40.191Z,6.69
2022-12-11T21:49:08.515Z,7.03
2022-12-11T21:51:42.550Z,7.23
2022-12-11T21:54:15.686Z,7.19
2022-12-11T21:56:43.389Z,6.83
2022-12-11T21:59:10.481Z,6.70
2022-12-11T22:01:42.353Z,6.45
2022-12-11T22:04:10.834Z,6.46
2022-12-11T22:06:38.026Z,6.23
2022-12-11T22:09:06.022Z,6.20
2022-12-11T22:11:34.284Z,5.93
2022-12-11T22:14:03.421Z,5.90
2022-12-11T22:16:30.705Z,5.79
2022-12-11T22:18:57.628Z,5.81
2022-12-11T22:21:24.611Z,5.81
2022-12-11T22:23:51.838Z,5.68
2022-12-11T22:26:21.732Z,5.68
2022-12-11T22:28:49.096Z,5.70
2022-12-11T22:31:19.880Z,5.70
2022-12-11T22:33:47.727Z,5.62
2022-12-11T22:36:15.494Z,5.59
2022-12-11T22:38:42.417Z,5.63
2022-12-11T22:41:23.480Z,5.82
2022-12-11T22:43:51.123Z,6.01
2022-12-11T22:46:21.857Z,6.05
2022-12-11T22:48:49.752Z,6.12
2022-12-11T22:51:17.024Z,6.11
2022-12-11T22:53:44.258Z,6.19
2022-12-11T22:56:12.830Z,6.28
2022-12-11T22:58:40.693Z,6.23
2022-12-11T23:01:13.792Z,6.14
2022-12-11T23:03:41.217Z,6.27
2022-12-11T23:06:11.249Z,6.24
2022-12-11T23:08:40.017Z,6.31
2022-12-11T23:11:15.601Z,6.31
2022-12-11T23:13:42.986Z,6.24
2022-12-11T23:16:10.670Z,6.29
2022-12-11T23:18:38.195Z,6.27
2022-12-11T23:21:07.059Z,6.24
2022-12-11T23:23:33.976Z,6.18
2022-12-11T23:26:00.921Z,6.22
2022-12-11T23:28:27.950Z,6.35
2022-12-11T23:30:55.181Z,6.47
2022-12-11T23:33:22.705Z,6.51
2022-12-11T23:35:49.620Z,6.50
2022-12-11T23:38:17.750Z,6.62
2022-12-11T23:40:44.931Z,6.67
2022-12-11T23:43:12.162Z,6.83
2022-12-11T23:45:38.946Z,6.92
2022-12-11T23:48:05.807Z,6.79
2022-12-11T23:50:33.078Z,6.91
2022-12-11T23:53:00.435Z,6.80
2022-12-11T23:55:27.822Z,6.73
2022-12-11T23:57:54.999Z,6.65
